sensor_id;sensor_type;location;lat;lon;timestamp;temperature;humidity
23403;DHT22;11874;48.228;11.684;2023-04-03T07:54:20;7.40;99.90
23403;DHT22;11874;48.228;11.684;2023-04-03T07:56:48;6.90;99.90
23403;DHT22;11874;48.228;11.684;2023-04-03T07:59:16;6.90;99.90
23403;DHT22;11874;48.228;11.684;2023-04-03T08:01:44;6.90;99.90
23403;DHT22;11874;48.228;11.684;2023-04-03T08:04:12;7.00;99.90
23403;DHT22;11874;48.228;11.684;2023-04-03T08:06:40;7.00;99.90
23403;DHT22;11874;48.228;11.684;2023-04-03T08:09:13;7.00;99.90
23403;DHT22;11874;48.228;11.684;2023-04-03T08:11:43;7.00;99.90
23403;DHT22;11874;48.228;11.684;2023-04-03T08:14:12;7.10;99.90
23403;DHT22;11874;48.228;11.684;2023-04-03T08:16:44;7.10;99.90
23403;DHT22;11874;48.228;11.684;2023-04-03T08:19:12;7.10;99.90
23403;DHT22;11874;48.228;11.684;2023-04-03T08:21:52;7.10;99.90
23403;DHT22;11874;48.228;11.684;2023-04-03T08:24:20;7.10;99.90
23403;DHT22;11874;48.228;11.684;2023-04-03T08:26:49;7.00;99.90
23403;DHT22;11874;48.228;11.684;2023-04-03T08:29:17;7.00;99.90
23403;DHT22;11874;48.228;11.684;2023-04-03T08:31:45;7.10;99.90
23403;DHT22;11874;48.228;11.684;2023-04-03T08:34:13;7.10;99.90
23403;DHT22;11874;48.228;11.684;2023-04-03T08:36:41;7.10;99.90
23403;DHT22;11874;48.228;11.684;2023-04-03T08:39:09;7.10;99.90
23403;DHT22;11874;48.228;11.684;2023-04-03T08:41:39;7.10;99.90
23403;DHT22;11874;48.228;11.684;2023-04-03T08:44:15;7.20;99.90
23403;DHT22;11874;48.228;11.684;2023-04-03T08:46:54;7.20;99.90
23403;DHT22;11874;48.228;11.684;2023-04-03T08:49:26;7.30;99.90
23403;DHT22;11874;48.228;11.684;2023-04-03T08:51:56;7.30;99.90
23403;DHT22;11874;48.228;11.684;2023-04-03T08:54:29;7.30;99.90
23403;DHT22;11874;48.228;11.684;2023-04-03T08:57:02;7.30;99.90
23403;DHT22;11874;48.228;11.684;2023-04-03T08:59:35;7.30;99.90
23403;DHT22;11874;48.228;11.684;2023-04-03T09:02:21;7.30;99.90
23403;DHT22;11874;48.228;11.684;2023-04-03T09:04:50;7.40;99.90
23403;DHT22;11874;48.228;11.684;2023-04-03T09:07:22;7.40;99.90
23403;DHT22;11874;48.228;11.684;2023-04-03T09:09:51;7.40;99.90
23403;DHT22;11874;48.228;11.684;2023-04-03T09:12:24;7.40;99.90
23403;DHT22;11874;48.228;11.684;2023-04-03T09:15:01;7.50;99.90
23403;DHT22;11874;48.228;11.684;2023-04-03T09:17:38;7.50;99.90
23403;DHT22;11874;48.228;11.684;2023-04-03T09:20:17;7.50;99.90
23403;DHT22;11874;48.228;11.684;2023-04-03T09:22:47;7.50;99.90
23403;DHT22;11874;48.228;11.684;2023-04-03T09:25:20;7.60;99.90
23403;DHT22;11874;48.228;11.684;2023-04-03T09:27:49;7.60;99.90
23403;DHT22;11874;48.228;11.684;2023-04-03T09:30:21;7.60;99.90
23403;DHT22;11874;48.228;11.684;2023-04-03T09:32:51;7.60;99.90
23403;DHT22;11874;48.228;11.684;2023-04-03T09:35:22;7.60;99.90
23403;DHT22;11874;48.228;11.684;2023-04-03T09:38:17;7.50;99.90
23403;DHT22;11874;48.228;11.684;2023-04-03T09:40:47;7.50;99.90
23403;DHT22;11874;48.228;11.684;2023-04-03T09:43:28;7.40;99.90
23403;DHT22;11874;48.228;11.684;2023-04-03T09:46:17;7.40;99.90
23403;DHT22;11874;48.228;11.684;2023-04-03T09:48:51;7.40;99.90
23403;DHT22;11874;48.228;11.684;2023-04-03T09:51:34;7.30;99.90
23403;DHT22;11874;48.228;11.684;2023-04-03T09:54:36;7.40;99.90
23403;DHT22;11874;48.228;11.684;2023-04-03T09:57:09;7.40;99.90
23403;DHT22;11874;48.228;11.684;2023-04-03T09:59:45;7.40;99.90
23403;DHT22;11874;48.228;11.684;2023-04-03T10:02:28;7.30;99.90
23403;DHT22;11874;48.228;11.684;2023-04-03T10:04:58;7.40;99.90
23403;DHT22;11874;48.228;11.684;2023-04-03T10:07:37;7.40;99.90
23403;DHT22;11874;48.228;11.684;2023-04-03T10:10:19;7.40;99.90
23403;DHT22;11874;48.228;11.684;2023-04-03T10:13:04;7.30;99.90
23403;DHT22;11874;48.228;11.684;2023-04-03T10:15:36;7.40;99.90
23403;DHT22;11874;48.228;11.684;2023-04-03T10:18:18;7.30;99.90
23403;DHT22;11874;48.228;11.684;2023-04-03T10:20:50;7.30;99.90
23403;DHT22;11874;48.228;11.684;2023-04-03T10:23:24;7.30;99.90
23403;DHT22;11874;48.228;11.684;2023-04-03T10:26:05;7.20;99.90
23403;DHT22;11874;48.228;11.684;2023-04-03T10:28:41;7.20;99.90
23403;DHT22;11874;48.228;11.684;2023-04-03T10:31:15;7.20;99.90
23403;DHT22;11874;48.228;11.684;2023-04-03T10:33:52;7.20;99.90
23403;DHT22;11874;48.228;11.684;2023-04-03T10:36:28;7.10;99.90
23403;DHT22;11874;48.228;11.684;2023-04-03T10:39:09;7.10;99.90
23403;DHT22;11874;48.228;11.684;2023-04-03T10:41:51;7.00;99.90
23403;DHT22;11874;48.228;11.684;2023-04-03T10:44:47;7.10;99.90
23403;DHT22;11874;48.228;11.684;2023-04-03T10:47:21;7.00;99.90
23403;DHT22;11874;48.228;11.684;2023-04-03T10:49:55;6.90;99.90
23403;DHT22;11874;48.228;11.684;2023-04-03T10:52:33;7.00;99.90
23403;DHT22;11874;48.228;11.684;2023-04-03T10:55:19;6.90;99.90
23403;DHT22;11874;48.228;11.684;2023-04-03T10:57:53;7.00;99.90
23403;DHT22;11874;48.228;11.684;2023-04-03T11:00:26;6.90;99.90
23403;DHT22;11874;48.228;11.684;2023-04-03T12:23:25;8.40;93.40
23403;DHT22;11874;48.228;11.684;2023-04-03T12:26:00;8.40;93.40
23403;DHT22;11874;48.228;11.684;2023-04-03T12:28:29;8.30;93.10
23403;DHT22;11874;48.228;11.684;2023-04-03T12:31:01;8.30;93.00
23403;DHT22;11874;48.228;11.684;2023-04-03T12:33:31;8.40;92.80
23403;DHT22;11874;48.228;11.684;2023-04-03T12:36:08;8.40;92.60
23403;DHT22;11874;48.228;11.684;2023-04-03T12:38:53;8.50;92.80
23403;DHT22;11874;48.228;11.684;2023-04-03T12:41:33;8.70;92.60
23403;DHT22;11874;48.228;11.684;2023-04-03T14:36:23;19.40;48.10
23403;DHT22;11874;48.228;11.684;2023-04-03T14:38:53;16.90;50.40
23403;DHT22;11874;48.228;11.684;2023-04-03T14:41:23;15.30;52.60
23403;DHT22;11874;48.228;11.684;2023-04-03T14:43:52;14.10;54.20
23403;DHT22;11874;48.228;11.684;2023-04-03T14:46:24;13.30;55.80
23403;DHT22;11874;48.228;11.684;2023-04-03T14:49:12;12.70;57.00
23403;DHT22;11874;48.228;11.684;2023-04-03T14:51:43;12.10;57.70
23403;DHT22;11874;48.228;11.684;2023-04-03T14:54:13;11.80;58.70
23403;DHT22;11874;48.228;11.684;2023-04-03T14:56:42;11.60;59.50
23403;DHT22;11874;48.228;11.684;2023-04-03T14:59:12;11.70;60.10
23403;DHT22;11874;48.228;11.684;2023-04-03T15:01:41;11.90;60.90
23403;DHT22;11874;48.228;11.684;2023-04-03T15:04:11;12.10;60.50
23403;DHT22;11874;48.228;11.684;2023-04-03T15:06:39;13.00;61.00
23403;DHT22;11874;48.228;11.684;2023-04-03T15:09:18;14.50;61.20
23403;DHT22;11874;48.228;11.684;2023-04-03T15:11:47;16.90;57.50
23403;DHT22;11874;48.228;11.684;2023-04-03T15:14:15;18.70;55.00
23403;DHT22;11874;48.228;11.684;2023-04-03T15:17:02;19.80;53.00
23403;DHT22;11874;48.228;11.684;2023-04-03T15:19:31;20.40;50.60
23403;DHT22;11874;48.228;11.684;2023-04-03T15:22:03;20.70;49.70
23403;DHT22;11874;48.228;11.684;2023-04-03T15:24:32;20.70;49.10
23403;DHT22;11874;48.228;11.684;2023-04-03T15:27:00;20.60;48.70
23403;DHT22;11874;48.228;11.684;2023-04-03T15:29:28;20.40;48.50
23403;DHT22;11874;48.228;11.684;2023-04-03T15:31:56;20.30;48.70
23403;DHT22;11874;48.228;11.684;2023-04-03T15:34:24;20.10;48.30
23403;DHT22;11874;48.228;11.684;2023-04-03T15:36:52;19.80;48.20
23403;DHT22;11874;48.228;11.684;2023-04-03T15:39:20;19.30;48.50
23403;DHT22;11874;48.228;11.684;2023-04-03T15:41:51;19.00;49.10
23403;DHT22;11874;48.228;11.684;2023-04-03T15:44:20;18.90;49.60
23403;DHT22;11874;48.228;11.684;2023-04-03T15:46:49;18.40;49.50
23403;DHT22;11874;48.228;11.684;2023-04-03T15:49:19;18.00;49.80
23403;DHT22;11874;48.228;11.684;2023-04-03T15:51:47;17.50;50.90
23403;DHT22;11874;48.228;11.684;2023-04-03T15:54:15;17.00;50.50
23403;DHT22;11874;48.228;11.684;2023-04-03T15:56:43;16.60;51.30
23403;DHT22;11874;48.228;11.684;2023-04-03T15:59:12;16.40;51.60
23403;DHT22;11874;48.228;11.684;2023-04-03T16:01:40;16.10;51.80
23403;DHT22;11874;48.228;11.684;2023-04-03T16:04:08;15.80;52.30
23403;DHT22;11874;48.228;11.684;2023-04-03T16:06:37;15.50;52.10
23403;DHT22;11874;48.228;11.684;2023-04-03T16:09:06;15.20;51.50
23403;DHT22;11874;48.228;11.684;2023-04-03T16:11:34;14.90;52.30
23403;DHT22;11874;48.228;11.684;2023-04-03T16:14:05;14.70;52.50
23403;DHT22;11874;48.228;11.684;2023-04-03T16:16:35;14.60;52.50
23403;DHT22;11874;48.228;11.684;2023-04-03T16:19:04;14.40;52.40
23403;DHT22;11874;48.228;11.684;2023-04-03T16:21:33;14.20;52.30
23403;DHT22;11874;48.228;11.684;2023-04-03T16:24:01;14.00;52.30
23403;DHT22;11874;48.228;11.684;2023-04-03T16:26:29;13.90;52.80
23403;DHT22;11874;48.228;11.684;2023-04-03T16:28:57;13.70;52.90
23403;DHT22;11874;48.228;11.684;2023-04-03T16:31:25;13.60;53.30
23403;DHT22;11874;48.228;11.684;2023-04-03T16:33:56;13.50;53.80
23403;DHT22;11874;48.228;11.684;2023-04-03T16:36:24;13.40;54.20
23403;DHT22;11874;48.228;11.684;2023-04-03T16:38:52;13.20;54.60
23403;DHT22;11874;48.228;11.684;2023-04-03T16:41:20;13.00;54.90
23403;DHT22;11874;48.228;11.684;2023-04-03T16:43:48;12.70;55.30
23403;DHT22;11874;48.228;11.684;2023-04-03T16:46:16;12.40;55.60
23403;DHT22;11874;48.228;11.684;2023-04-03T16:48:44;12.10;55.90
23403;DHT22;11874;48.228;11.684;2023-04-03T16:51:13;11.80;56.40
23403;DHT22;11874;48.228;11.684;2023-04-03T16:53:41;11.50;56.80
